• Join FlightAware (Why Join?)
  • Login
  • US Flag 
02:09AM EDT


 

Airport Tracker/Info


-or-


 

Live Flight TrackerFlight Track Log ✈ EJA601 ✈ 17-May-2012 ✈ KPWM - KHPN

Flight Track Log - Related Links

Times and Time Zones

All times are in EDT time to prevent confusion due to time zone crossing. See the EJA601 flight status page for this flight to view local times or setup timezone preferences in your user account.

Time Position Orientation Groundspeed Altitude Reporting Facility
EDT Latitude Longitude Course Direction KTS MPH feet Rate Location/Type
09:39PM 43.6606 -70.4428 280° West 222 255 5,800  Level Boston Center
09:40PM 43.6700 -70.5197 280° West 251 289 9,000 3,240 Climbing Boston Center
09:41PM 43.6844 -70.6286 253° West 265 305 12,300 3,060 Climbing Boston Center
09:42PM 43.6650 -70.7181 252° West 270 311 15,200 3,000 Climbing Boston Center
09:43PM 43.6375 -70.8364 253° West 285 328 18,300 3,000 Climbing Boston Center
09:44PM 43.6139 -70.9403 251° West 292 336 21,300 2,400 Climbing Boston Center
09:45PM 43.5861 -71.0500 253° West 299 344 23,100 1,560 Climbing Boston Center
09:46PM 43.5583 -71.1736 251° West 312 359 24,500 1,380 Climbing Boston Center
09:47PM 43.5283 -71.2919 250° West 325 374 25,900 720 Climbing Boston Center
09:48PM 43.4961 -71.4156 253° West 330 380 26,000  Climbing Boston Center
09:49PM 43.4661 -71.5475 250° West 350 403 26,000  Level Boston Center
09:50PM 43.4317 -71.6797 250° West 362 417 26,000  Level Boston Center
09:51PM 43.3950 -71.8144 253° West 369 425 26,000  Level Boston Center
09:52PM 43.3642 -71.9489 250° West 369 425 26,000  Level Boston Center
09:53PM 43.3294 -72.0833 250° West 369 425 26,000  Level Boston Center
09:54PM 43.2942 -72.2147 251° West 369 425 26,000 -60 Level Boston Center
09:55PM 43.2611 -72.3489 250° West 369 425 25,900 -480 Descending Boston Center
09:56PM 43.2256 -72.4800 251° West 369 425 25,100 -840 Descending Boston Center
09:57PM 43.1922 -72.6111 250° West 369 425 24,300 -600 Descending Boston Center
09:58PM 43.1564 -72.7447 248° West 369 425 24,000 -180 Descending Boston Center
09:59PM 43.1228 -72.8583 252° West 362 417 24,000  Level Boston Center
10:00PM 43.0889 -73.0031 250° West 362 417 24,000 -120 Level Boston Center
10:01PM 43.0547 -73.1333 250° West 367 422 23,800 -840 Descending Boston Center
10:02PM 43.0206 -73.2608 244° Southwest 367 422 22,400 -1,440 Descending Boston Center
10:03PM 42.9822 -73.3681 234° Southwest 361 415 21,000 -1,440 Descending Boston Center
10:04PM 42.9231 -73.4778 233° Southwest 361 415 19,600 -1,500 Descending Boston Center
10:05PM 42.8594 -73.5928 209° Southwest 361 415 18,000 -1,440 Descending Boston Center
10:06PM 42.7836 -73.6508 188° South 342 394 16,800 -1,440 Descending Boston Center
10:07PM 42.6708 -73.6711 188° South 358 412 15,200 -1,440 Descending Boston Center
10:08PM 42.5769 -73.6892 187° South 372 428 14,000 -600 Descending Boston Center
10:09PM 42.4664 -73.7067 187° South 372 428 14,000  Level Boston Center
10:10PM 42.3744 -73.7217 188° South 372 428 14,000  Level Boston Center
10:11PM 42.2636 -73.7417 188° South 372 428 14,000  Level Boston Center
10:12PM 42.1636 -73.7594 187° South 372 428 14,000  Level Boston Center
10:13PM 42.0717 -73.7742 189° South 372 428 14,000 -300 Level Boston Center
10:14PM 41.9631 -73.7969 186° South 367 422 13,500 -960 Descending Boston Center
10:15PM 41.8794 -73.8092 186° South 350 403 12,100 -1,500 Descending Boston Center
10:16PM 41.7833 -73.8236 187° South 329 379 10,500 -1,500 Descending Boston Center
10:17PM 41.7103 -73.8361 188° South 311 358 9,100 -1,560 Descending Boston Center
10:18PM 41.6225 -73.8536 186° South 295 339 7,400 -1,500 Descending Boston Center
10:19PM 41.5536 -73.8631 183° South 290 334 6,100 -900 Descending Boston Center
10:20PM 41.5000 -73.8667 180° South 258 297 6,000 -120 Descending New York TRACON
10:21PM 41.4333 -73.8667 159° South 258 297 6,000  Level New York TRACON
10:22PM 41.3667 -73.8333 135° Southeast 251 289 6,000 -180 Level New York TRACON
10:23PM 41.3167 -73.7667 143° Southeast 246 283 5,700 -660 Descending New York TRACON
10:24PM 41.2667 -73.7167 153° Southeast 263 303 4,700 -960 Descending New York TRACON
10:25PM 41.2167 -73.6833 143° Southeast 244 281 3,900 -900 Descending New York TRACON
10:26PM 41.1667 -73.6333 153° Southeast 198 228 3,000 -840 Descending New York TRACON
10:27PM 41.1167 -73.6000 153° Southeast 191 220 2,200 -540 Descending New York TRACON
10:28PM 41.0667 -73.5667 194° South 189 217 2,000 -120 Descending New York TRACON
10:29PM 41.0167 -73.5833 246° West 173 199 2,000 -120 Level New York TRACON
10:30PM 41.0000 -73.6333 311° West 169 194 1,800 -420 Descending New York TRACON
10:31PM 41.0333 -73.6833 339° North 139 160 1,200 -600 Descending New York TRACON
10:38PM 41.0667 -73.7000 273° West  Level FlightAware Approximate
10:39PM 41.0709 -73.8169 273° West  Level Estimated